createdAt,value
2023-03-13T00:01:18.423Z,4.56
2023-03-13T00:03:47.942Z,4.17
2023-03-13T00:06:16.916Z,4.20
2023-03-13T00:08:45.691Z,3.99
2023-03-13T00:11:15.253Z,3.93
2023-03-13T00:13:44.139Z,3.86
2023-03-13T00:16:14.527Z,3.89
2023-03-13T00:18:48.363Z,3.93
2023-03-13T00:21:17.207Z,4.06
2023-03-13T00:23:46.024Z,3.90
2023-03-13T00:26:15.791Z,3.66
2023-03-13T00:28:46.013Z,3.77
2023-03-13T00:31:16.106Z,3.95
2023-03-13T00:33:48.396Z,3.94
2023-03-13T00:36:18.686Z,4.01
2023-03-13T00:38:47.352Z,4.02
2023-03-13T00:41:17.791Z,3.86
2023-03-13T00:43:46.810Z,3.82
2023-03-13T00:46:17.095Z,3.70
2023-03-13T00:48:45.163Z,3.38
2023-03-13T00:51:15.578Z,3.42
2023-03-13T00:53:44.720Z,3.72
2023-03-13T00:56:15.274Z,3.71
2023-03-13T00:58:45.287Z,3.25
2023-03-13T01:01:16.894Z,3.36
2023-03-13T01:03:47.656Z,3.49
2023-03-13T01:06:19.012Z,3.08
2023-03-13T01:08:47.094Z,3.35
2023-03-13T01:11:17.444Z,3.26
2023-03-13T01:13:46.920Z,3.22
2023-03-13T01:16:17.478Z,3.01
2023-03-13T01:18:49.454Z,3.30
2023-03-13T01:21:20.825Z,3.12
2023-03-13T01:23:49.355Z,3.11
2023-03-13T01:26:17.401Z,3.15
2023-03-13T01:31:17.687Z,3.08
2023-03-13T01:33:47.504Z,3.02
2023-03-13T01:36:15.970Z,3.13
2023-03-13T01:38:48.554Z,3.16
2023-03-13T01:41:16.448Z,3.07
2023-03-13T01:43:45.470Z,3.07
2023-03-13T01:46:16.522Z,3.11
2023-03-13T01:48:51.727Z,2.90
2023-03-13T01:51:24.938Z,3.16
2023-03-13T01:54:00.534Z,2.94
2023-03-13T01:56:35.676Z,2.97
2023-03-13T01:59:07.005Z,3.00
2023-03-13T02:01:36.211Z,2.99
2023-03-13T02:04:05.686Z,2.94
2023-03-13T02:06:40.448Z,2.63
2023-03-13T02:09:15.730Z,2.89
2023-03-13T02:11:50.745Z,2.93
2023-03-13T02:14:22.789Z,2.86
2023-03-13T02:16:52.109Z,3.04
2023-03-13T02:19:28.964Z,2.94
2023-03-13T02:22:07.963Z,2.74
2023-03-13T02:24:48.409Z,2.76
2023-03-13T02:27:17.790Z,3.01
2023-03-13T02:29:46.672Z,2.84
2023-03-13T02:32:15.560Z,2.90
2023-03-13T02:34:46.723Z,2.93
2023-03-13T02:37:16.468Z,2.74
2023-03-13T02:39:50.498Z,2.88
2023-03-13T02:42:23.011Z,2.73
2023-03-13T02:44:52.223Z,2.76
2023-03-13T02:47:21.647Z,2.64
2023-03-13T02:49:51.056Z,2.88
2023-03-13T02:52:25.699Z,2.90
2023-03-13T02:54:59.867Z,2.84
2023-03-13T02:57:29.786Z,2.87
2023-03-13T02:59:57.630Z,2.71
2023-03-13T03:02:25.733Z,2.77
2023-03-13T03:04:53.569Z,2.89
2023-03-13T03:07:21.433Z,2.74
2023-03-13T03:09:49.213Z,2.69
2023-03-13T03:12:17.067Z,2.50
2023-03-13T03:14:46.421Z,2.70
2023-03-13T03:17:14.372Z,2.74
2023-03-13T03:19:42.201Z,2.77
2023-03-13T03:22:10.083Z,2.77
2023-03-13T03:24:37.927Z,2.96
2023-03-13T03:27:06.182Z,2.74
2023-03-13T03:29:33.956Z,2.78
2023-03-13T03:32:03.251Z,2.88
2023-03-13T03:34:31.258Z,2.69
2023-03-13T03:36:59.133Z,2.86
2023-03-13T03:39:26.983Z,2.95
2023-03-13T03:41:54.849Z,2.67
2023-03-13T03:44:22.669Z,2.76
2023-03-13T03:46:53.832Z,2.88
2023-03-13T03:49:23.094Z,3.05
2023-03-13T03:51:51.005Z,3.32
2023-03-13T03:54:18.855Z,3.41
2023-03-13T03:56:46.709Z,3.45
2023-03-13T03:59:14.546Z,3.37
2023-03-13T04:01:43.144Z,3.09
2023-03-13T04:04:11.193Z,3.37
2023-03-13T04:06:40.411Z,3.27
2023-03-13T04:09:08.229Z,3.03
2023-03-13T04:11:36.061Z,2.92
2023-03-13T04:14:03.990Z,2.94
2023-03-13T04:16:31.935Z,2.62
2023-03-13T04:18:59.798Z,2.57
2023-03-13T04:21:27.802Z,2.83
2023-03-13T04:23:56.998Z,2.84
2023-03-13T04:26:24.839Z,2.50
2023-03-13T04:28:52.836Z,2.79
2023-03-13T04:31:20.709Z,2.73
2023-03-13T04:33:48.638Z,2.98
2023-03-13T04:36:16.502Z,2.84
2023-03-13T04:38:44.428Z,3.28
2023-03-13T04:41:13.632Z,3.34
2023-03-13T04:43:41.494Z,2.99
2023-03-13T04:46:09.415Z,2.80
2023-03-13T04:48:37.323Z,2.57
2023-03-13T04:51:05.600Z,2.96
2023-03-13T04:53:33.458Z,2.61
2023-03-13T04:56:01.290Z,2.75
2023-03-13T04:58:30.581Z,2.46
2023-03-13T05:00:58.472Z,2.39
2023-03-13T05:03:26.340Z,2.50
2023-03-13T05:05:54.147Z,2.62
2023-03-13T05:08:22.016Z,2.63
2023-03-13T05:10:49.870Z,2.55
2023-03-13T05:13:17.697Z,2.60
2023-03-13T05:15:46.890Z,2.68
2023-03-13T05:18:14.723Z,2.16
2023-03-13T05:20:42.552Z,2.24
2023-03-13T05:23:10.396Z,2.16
2023-03-13T05:25:38.319Z,2.35
2023-03-13T05:28:06.176Z,2.24
2023-03-13T05:30:34.027Z,2.18
2023-03-13T05:33:03.309Z,2.41
2023-03-13T05:35:31.193Z,2.18
2023-03-13T05:37:59.199Z,2.22
2023-03-13T05:40:26.989Z,2.36
2023-03-13T05:42:54.847Z,2.29
2023-03-13T05:45:22.913Z,2.16
2023-03-13T05:47:50.776Z,2.07
2023-03-13T05:50:20.097Z,2.56
2023-03-13T05:52:47.986Z,4.05
2023-03-13T05:55:15.892Z,3.05
2023-03-13T05:57:45.989Z,3.02
2023-03-13T06:00:15.785Z,2.56
2023-03-13T06:02:44.305Z,2.66
2023-03-13T06:05:12.445Z,2.64
2023-03-13T06:07:41.644Z,2.40
2023-03-13T06:10:10.797Z,2.51
2023-03-13T06:12:38.649Z,2.71
2023-03-13T06:15:11.694Z,2.59
2023-03-13T06:17:42.003Z,2.38
2023-03-13T06:20:11.692Z,2.48
2023-03-13T06:22:41.444Z,2.46
2023-03-13T06:25:10.732Z,2.35
2023-03-13T06:27:42.240Z,2.25
2023-03-13T06:30:11.922Z,2.63
2023-03-13T06:32:39.974Z,2.72
2023-03-13T06:35:08.406Z,2.63
2023-03-13T06:37:36.605Z,2.18
2023-03-13T06:40:07.634Z,2.14
2023-03-13T06:42:35.483Z,2.05
2023-03-13T06:45:04.088Z,2.12
2023-03-13T06:47:32.305Z,1.98
2023-03-13T06:50:00.171Z,2.08
2023-03-13T06:52:41.181Z,1.96
2023-03-13T06:55:13.904Z,2.27
2023-03-13T06:57:41.807Z,2.15
2023-03-13T07:00:12.459Z,2.00
2023-03-13T07:02:40.357Z,2.05
2023-03-13T07:05:09.444Z,2.06
2023-03-13T07:07:37.339Z,2.08
2023-03-13T07:10:05.933Z,2.05
2023-03-13T07:12:35.652Z,2.02
2023-03-13T07:15:03.819Z,1.98
2023-03-13T07:17:31.752Z,1.82
2023-03-13T07:20:03.099Z,1.97
2023-03-13T07:22:30.985Z,1.91
2023-03-13T07:24:58.985Z,1.73
2023-03-13T07:27:26.948Z,1.75
2023-03-13T07:29:56.285Z,1.82
2023-03-13T07:32:24.301Z,2.05
2023-03-13T07:34:52.208Z,2.03
2023-03-13T07:37:20.077Z,2.11
2023-03-13T07:39:47.935Z,1.98
2023-03-13T07:42:15.763Z,2.27
2023-03-13T07:44:43.596Z,2.13
2023-03-13T07:47:12.800Z,2.28
2023-03-13T07:49:43.875Z,2.29
2023-03-13T07:52:11.717Z,2.33
2023-03-13T07:54:39.606Z,3.03
2023-03-13T07:57:07.487Z,2.81
2023-03-13T07:59:35.336Z,2.76
2023-03-13T08:02:03.790Z,2.61
2023-03-13T08:04:32.997Z,2.82
2023-03-13T08:07:00.874Z,1.98
2023-03-13T08:09:28.706Z,2.27
2023-03-13T08:11:56.556Z,2.14
2023-03-13T08:14:24.639Z,2.09
2023-03-13T08:16:52.554Z,2.06
2023-03-13T08:19:20.438Z,2.26
2023-03-13T08:21:49.664Z,2.34
2023-03-13T08:24:17.466Z,2.33
2023-03-13T08:26:45.323Z,2.18
2023-03-13T08:29:15.463Z,2.00
2023-03-13T08:31:48.620Z,1.79
2023-03-13T08:34:18.202Z,2.06
2023-03-13T08:36:47.037Z,1.87
2023-03-13T08:39:18.897Z,1.81
2023-03-13T08:41:47.304Z,1.79
2023-03-13T08:44:17.603Z,1.69
2023-03-13T08:46:46.059Z,1.97
2023-03-13T08:49:14.307Z,1.99
2023-03-13T08:51:42.156Z,1.97
2023-03-13T08:54:10.353Z,2.16
2023-03-13T08:56:40.950Z,1.77
2023-03-13T08:59:08.833Z,1.85
2023-03-13T09:01:38.101Z,1.93
2023-03-13T09:04:07.004Z,2.14
2023-03-13T09:06:36.464Z,2.20
2023-03-13T09:09:05.607Z,1.95
2023-03-13T09:11:34.515Z,1.77
2023-03-13T09:14:03.845Z,1.83
2023-03-13T09:16:33.315Z,1.79
2023-03-13T09:19:02.264Z,1.95
2023-03-13T09:21:32.112Z,1.83
2023-03-13T09:24:00.624Z,2.06
2023-03-13T09:26:29.930Z,1.99
2023-03-13T09:28:58.509Z,2.18
2023-03-13T09:31:30.440Z,2.07
2023-03-13T09:33:59.289Z,2.17
2023-03-13T09:36:28.428Z,2.06
2023-03-13T09:38:58.403Z,2.27
2023-03-13T09:41:33.995Z,2.04
2023-03-13T09:44:08.589Z,2.13
2023-03-13T09:46:49.377Z,2.18
2023-03-13T09:49:31.086Z,2.29
2023-03-13T09:52:12.710Z,2.06
2023-03-13T09:54:47.861Z,2.30
2023-03-13T09:57:23.817Z,2.24
2023-03-13T09:59:59.890Z,2.51
2023-03-13T10:02:34.737Z,2.20
2023-03-13T10:05:17.820Z,2.26
2023-03-13T10:07:45.705Z,2.33
2023-03-13T10:10:18.042Z,2.10
2023-03-13T10:12:48.150Z,2.26
2023-03-13T10:15:36.549Z,2.14
2023-03-13T10:18:17.351Z,2.12
2023-03-13T10:20:48.861Z,1.96
2023-03-13T10:23:23.140Z,2.11
2023-03-13T10:25:51.111Z,1.95
2023-03-13T10:28:22.494Z,1.95
2023-03-13T10:30:52.994Z,2.14
2023-03-13T10:33:25.576Z,2.10
2023-03-13T10:36:08.377Z,2.27
2023-03-13T10:38:47.432Z,2.36
2023-03-13T10:41:27.809Z,2.26
2023-03-13T10:44:00.030Z,1.92
2023-03-13T10:46:30.338Z,2.66
2023-03-13T10:49:04.620Z,2.24
2023-03-13T10:51:38.720Z,2.80
2023-03-13T10:54:16.987Z,2.82
2023-03-13T10:56:44.959Z,1.79
2023-03-13T10:59:24.281Z,1.70
2023-03-13T11:01:53.484Z,1.97
2023-03-13T11:04:31.546Z,2.29
2023-03-13T11:07:03.704Z,2.52
2023-03-13T11:09:32.293Z,2.30
2023-03-13T11:12:06.106Z,2.53
2023-03-13T11:14:33.992Z,2.23
2023-03-13T11:17:10.859Z,2.21
2023-03-13T11:20:04.264Z,2.46
2023-03-13T11:22:44.459Z,2.09
2023-03-13T11:25:33.219Z,2.24
2023-03-13T11:28:15.995Z,1.75
2023-03-13T11:31:06.525Z,2.28
2023-03-13T11:33:53.156Z,2.16
2023-03-13T11:36:28.733Z,2.40
2023-03-13T11:39:08.963Z,9.72
2023-03-13T11:41:56.525Z,4.27
2023-03-13T11:44:32.183Z,2.33
2023-03-13T11:47:16.229Z,2.65
2023-03-13T11:50:12.429Z,2.35
2023-03-13T11:52:57.470Z,2.57
2023-03-13T11:55:47.661Z,3.33
2023-03-13T11:58:35.434Z,2.52
2023-03-13T12:01:10.046Z,3.24
2023-03-13T12:03:46.178Z,3.02
2023-03-13T12:06:28.699Z,2.97
2023-03-13T12:09:07.856Z,2.62
2023-03-13T12:11:43.772Z,2.58
2023-03-13T12:14:19.906Z,2.62
2023-03-13T12:16:54.916Z,2.54
2023-03-13T12:19:31.866Z,2.68
2023-03-13T12:22:14.836Z,2.78
2023-03-13T12:24:53.419Z,2.90
2023-03-13T12:27:32.773Z,2.38
2023-03-13T12:30:06.495Z,2.49
2023-03-13T12:32:41.197Z,2.73
2023-03-13T12:35:20.845Z,2.58
2023-03-13T12:37:56.208Z,2.26
2023-03-13T12:40:34.764Z,2.25
2023-03-13T12:43:10.598Z,2.33
2023-03-13T12:45:52.602Z,2.39
2023-03-13T12:48:47.095Z,2.26
2023-03-13T12:51:38.138Z,2.38
2023-03-13T12:54:43.985Z,2.30
2023-03-13T12:57:43.409Z,2.19
2023-03-13T13:00:19.458Z,2.41
2023-03-13T13:02:48.714Z,2.32
2023-03-13T13:05:22.561Z,2.54
2023-03-13T13:07:56.077Z,3.41
2023-03-13T13:10:27.455Z,3.26
2023-03-13T13:13:30.741Z,3.05
2023-03-13T13:16:06.299Z,2.90
2023-03-13T13:18:35.597Z,2.82
2023-03-13T13:21:26.472Z,2.78
2023-03-13T13:23:56.542Z,2.87
2023-03-13T13:26:51.381Z,2.20
2023-03-13T13:29:58.929Z,2.19
2023-03-13T13:32:47.152Z,1.99
2023-03-13T13:35:28.895Z,2.11
2023-03-13T13:38:40.130Z,2.14
2023-03-13T13:41:38.691Z,2.38
2023-03-13T13:44:29.237Z,2.53
2023-03-13T13:47:01.831Z,2.23
2023-03-13T13:49:38.769Z,2.07
2023-03-13T13:52:41.072Z,2.07
2023-03-13T13:55:42.437Z,2.25
2023-03-13T13:58:18.555Z,2.21
2023-03-13T14:00:52.733Z,2.05
2023-03-13T14:03:23.822Z,2.11
2023-03-13T14:05:56.657Z,2.44
2023-03-13T14:08:30.777Z,2.32
2023-03-13T14:11:19.244Z,2.34
2023-03-13T14:14:07.099Z,2.41
2023-03-13T14:16:35.050Z,2.58
2023-03-13T14:19:03.029Z,2.57
2023-03-13T14:21:33.139Z,2.35
2023-03-13T14:24:01.060Z,2.32
2023-03-13T14:26:30.700Z,2.19
2023-03-13T14:29:02.855Z,2.11
2023-03-13T14:31:35.871Z,2.30
2023-03-13T14:34:06.694Z,2.11
2023-03-13T14:36:50.109Z,2.23
2023-03-13T14:39:36.732Z,2.67
2023-03-13T14:42:10.718Z,2.43
2023-03-13T14:44:40.230Z,2.36
2023-03-13T14:47:15.515Z,3.07
2023-03-13T14:49:47.292Z,2.14
2023-03-13T14:52:25.019Z,2.29
2023-03-13T14:54:55.519Z,2.27
2023-03-13T14:57:27.043Z,2.05
2023-03-13T14:59:58.153Z,2.07
2023-03-13T15:02:29.603Z,2.38
2023-03-13T15:05:00.207Z,2.21
2023-03-13T15:07:38.776Z,2.28
2023-03-13T15:10:20.737Z,2.10
2023-03-13T15:12:51.692Z,2.33
2023-03-13T15:15:19.845Z,2.44
2023-03-13T15:17:47.826Z,2.38
2023-03-13T15:20:17.552Z,2.18
2023-03-13T15:22:47.381Z,2.25
2023-03-13T15:25:18.635Z,2.41
2023-03-13T15:27:46.941Z,2.05
2023-03-13T15:30:17.447Z,2.11
2023-03-13T15:32:47.061Z,2.03
2023-03-13T15:35:31.585Z,2.46
2023-03-13T15:38:02.851Z,2.32
2023-03-13T15:40:31.813Z,2.20
2023-03-13T15:43:00.339Z,2.18
2023-03-13T15:45:28.255Z,2.09
2023-03-13T15:47:56.224Z,2.23
2023-03-13T15:50:29.698Z,2.12
2023-03-13T15:52:57.912Z,2.29
2023-03-13T15:55:30.147Z,1.95
2023-03-13T15:57:58.033Z,1.91
2023-03-13T16:00:27.897Z,1.90
2023-03-13T16:02:55.842Z,1.85
2023-03-13T16:05:23.693Z,2.14
2023-03-13T16:07:51.599Z,1.91
2023-03-13T16:10:24.660Z,1.81
2023-03-13T16:12:54.708Z,2.09
2023-03-13T16:15:22.935Z,2.75
2023-03-13T16:17:50.923Z,2.16
2023-03-13T16:20:21.660Z,1.81
2023-03-13T16:22:51.173Z,1.61
2023-03-13T16:25:20.928Z,1.48
2023-03-13T16:27:49.045Z,1.83
2023-03-13T16:30:24.017Z,1.87
2023-03-13T16:32:52.112Z,1.45
2023-03-13T16:35:20.738Z,1.56
2023-03-13T16:37:50.750Z,1.82
2023-03-13T16:40:21.571Z,2.45
2023-03-13T16:42:49.573Z,2.17
2023-03-13T16:45:19.800Z,1.81
2023-03-13T16:47:48.179Z,1.91
2023-03-13T16:50:24.196Z,1.96
2023-03-13T16:52:53.402Z,1.92
2023-03-13T16:55:24.651Z,1.84
2023-03-13T16:57:55.046Z,1.82
2023-03-13T17:00:26.664Z,2.25
2023-03-13T17:02:56.759Z,2.06
2023-03-13T17:05:25.385Z,2.39
2023-03-13T17:07:53.602Z,2.17
2023-03-13T17:10:24.927Z,2.86
2023-03-13T17:12:53.227Z,2.34
2023-03-13T17:15:21.803Z,3.54
2023-03-13T17:17:52.872Z,2.37
2023-03-13T17:20:23.405Z,3.25
2023-03-13T17:22:51.338Z,2.46
2023-03-13T17:25:19.770Z,2.20
2023-03-13T17:27:48.535Z,1.99
2023-03-13T17:30:21.592Z,1.52
2023-03-13T17:32:51.020Z,1.65
2023-03-13T17:35:21.172Z,1.73
2023-03-13T17:37:50.055Z,2.25
2023-03-13T17:40:21.322Z,2.04
2023-03-13T17:42:49.499Z,2.10
2023-03-13T17:45:18.488Z,2.14
2023-03-13T17:47:49.136Z,1.98
2023-03-13T17:50:21.470Z,3.23
2023-03-13T17:52:49.752Z,2.74
2023-03-13T17:55:19.318Z,2.43
2023-03-13T17:57:48.305Z,2.35
2023-03-13T18:00:22.197Z,2.24
2023-03-13T18:02:50.200Z,1.68
2023-03-13T18:05:19.689Z,2.30
2023-03-13T18:07:48.414Z,2.87
2023-03-13T18:10:22.213Z,2.25
2023-03-13T18:12:51.338Z,2.21
2023-03-13T18:15:20.224Z,2.66
2023-03-13T18:17:48.526Z,2.39
2023-03-13T18:20:20.391Z,5.01
2023-03-13T18:22:48.303Z,5.34
2023-03-13T18:25:16.633Z,4.70
2023-03-13T18:27:44.785Z,5.07
2023-03-13T18:30:22.674Z,3.89
2023-03-13T18:32:51.137Z,3.24
2023-03-13T18:35:20.914Z,2.93
2023-03-13T18:37:53.279Z,3.07
2023-03-13T18:40:24.274Z,2.51
2023-03-13T18:42:52.473Z,2.34
2023-03-13T18:45:22.384Z,1.94
2023-03-13T18:47:50.746Z,1.78
2023-03-13T18:50:24.918Z,1.96
2023-03-13T18:52:53.235Z,2.08
2023-03-13T18:55:21.339Z,2.16
2023-03-13T18:57:50.087Z,1.91
2023-03-13T19:00:21.038Z,1.78
2023-03-13T19:02:49.583Z,1.73
2023-03-13T19:05:18.246Z,1.83
2023-03-13T19:07:48.168Z,1.83
2023-03-13T19:10:21.581Z,2.04
2023-03-13T19:12:49.437Z,2.12
2023-03-13T19:15:18.395Z,1.71
2023-03-13T19:17:46.614Z,1.95
2023-03-13T19:20:17.501Z,1.85
2023-03-13T19:22:45.466Z,1.78
2023-03-13T19:25:17.163Z,1.91
2023-03-13T19:27:45.885Z,1.86
2023-03-13T19:30:18.379Z,1.52
2023-03-13T19:32:46.470Z,1.59
2023-03-13T19:35:18.632Z,1.54
2023-03-13T19:37:46.693Z,1.54
2023-03-13T19:40:21.610Z,1.63
2023-03-13T19:42:49.515Z,1.46
2023-03-13T19:45:19.737Z,1.49
2023-03-13T19:47:47.623Z,1.56
2023-03-13T19:50:21.131Z,1.84
2023-03-13T19:52:49.304Z,1.90
2023-03-13T19:55:18.862Z,2.24
2023-03-13T19:57:46.826Z,1.97
2023-03-13T20:00:21.537Z,1.86
2023-03-13T20:02:49.457Z,2.00
2023-03-13T20:05:17.520Z,2.29
2023-03-13T20:07:45.549Z,1.91
2023-03-13T20:10:14.260Z,1.78
2023-03-13T20:12:43.504Z,1.60
2023-03-13T20:15:12.695Z,1.47
2023-03-13T20:17:40.596Z,1.45
2023-03-13T20:20:09.749Z,1.15
2023-03-13T20:22:37.700Z,0.88
2023-03-13T20:25:07.545Z,0.84
2023-03-13T20:27:35.569Z,1.92
2023-03-13T20:30:05.712Z,3.97
2023-03-13T20:32:34.394Z,6.45
2023-03-13T20:35:02.315Z,2.86
2023-03-13T20:37:30.200Z,1.08
2023-03-13T20:39:58.111Z,1.25
2023-03-13T20:42:26.054Z,1.74
2023-03-13T20:44:55.393Z,1.18
2023-03-13T20:47:24.811Z,2.39
2023-03-13T20:49:52.681Z,16.57
2023-03-13T20:52:20.615Z,11.84
2023-03-13T20:54:48.534Z,6.46
2023-03-13T20:57:18.009Z,2.65
2023-03-13T20:59:46.167Z,1.83
2023-03-13T21:02:14.098Z,1.20
2023-03-13T21:04:43.366Z,1.19
2023-03-13T21:07:11.330Z,1.41
2023-03-13T21:09:39.271Z,1.27
2023-03-13T21:12:07.480Z,1.53
2023-03-13T21:14:36.420Z,1.72
2023-03-13T21:17:04.484Z,1.60
2023-03-13T21:19:34.112Z,1.90
2023-03-13T21:22:03.365Z,1.99
2023-03-13T21:24:32.464Z,1.60
2023-03-13T21:27:00.365Z,1.00
2023-03-13T21:29:28.445Z,1.25
2023-03-13T21:31:56.442Z,1.28
2023-03-13T21:34:24.386Z,1.57
2023-03-13T21:36:52.596Z,1.77
2023-03-13T21:39:22.847Z,1.72
2023-03-13T21:41:50.684Z,1.87
2023-03-13T21:44:19.654Z,1.63
2023-03-13T21:46:48.570Z,1.74
2023-03-13T21:49:16.702Z,2.00
2023-03-13T21:51:44.593Z,2.09
2023-03-13T21:54:12.450Z,1.87
2023-03-13T21:56:41.692Z,1.76
2023-03-13T21:59:09.759Z,1.40
2023-03-13T22:01:37.643Z,1.60
2023-03-13T22:04:05.824Z,1.42
2023-03-13T22:06:33.704Z,0.91
2023-03-13T22:09:02.920Z,0.72
2023-03-13T22:11:31.077Z,0.79
2023-03-13T22:14:00.282Z,0.77
2023-03-13T22:16:28.345Z,0.82
2023-03-13T22:18:56.695Z,0.76
2023-03-13T22:21:24.676Z,0.76
2023-03-13T22:23:52.550Z,0.65
2023-03-13T22:26:20.441Z,0.62
2023-03-13T22:28:48.306Z,0.69
2023-03-13T22:31:18.493Z,0.77
2023-03-13T22:33:46.314Z,0.84
2023-03-13T22:36:14.247Z,1.03
2023-03-13T22:38:42.077Z,0.68
2023-03-13T22:41:12.515Z,0.68
2023-03-13T22:43:40.533Z,0.59
2023-03-13T22:46:08.715Z,0.59
2023-03-13T22:48:39.720Z,0.61
2023-03-13T22:51:10.698Z,0.68
2023-03-13T22:53:41.060Z,0.73
2023-03-13T22:56:10.915Z,1.18
2023-03-13T22:58:40.345Z,0.82
2023-03-13T23:01:09.272Z,0.74
2023-03-13T23:03:38.540Z,1.21
2023-03-13T23:06:07.696Z,1.42
2023-03-13T23:08:35.720Z,1.36
2023-03-13T23:11:05.332Z,1.41
2023-03-13T23:13:33.547Z,1.78
2023-03-13T23:16:01.620Z,2.41
2023-03-13T23:18:29.593Z,1.42
2023-03-13T23:20:58.767Z,0.97
2023-03-13T23:23:26.697Z,0.75
2023-03-13T23:25:54.594Z,0.89
2023-03-13T23:28:22.527Z,0.93
2023-03-13T23:30:50.385Z,1.01
2023-03-13T23:33:18.245Z,0.76
2023-03-13T23:35:46.863Z,0.57
2023-03-13T23:38:18.345Z,0.48
2023-03-13T23:40:46.244Z,0.47
2023-03-13T23:43:14.049Z,0.46
2023-03-13T23:45:41.871Z,0.50
2023-03-13T23:48:09.656Z,0.54
2023-03-13T23:50:37.643Z,0.66
2023-03-13T23:53:05.443Z,0.59
2023-03-13T23:55:34.656Z,0.43
2023-03-13T23:58:02.518Z,0.66
